createdAt,value
2023-03-13T00:01:37.764Z,100019.72
2023-03-13T00:04:04.720Z,100031.47
2023-03-13T00:06:34.730Z,100018.38
2023-03-13T00:09:02.720Z,100021.69
2023-03-13T00:11:29.804Z,100021.03
2023-03-13T00:13:58.173Z,100016.00
2023-03-13T00:16:25.116Z,99999.63
2023-03-13T00:18:53.482Z,100005.94
2023-03-13T00:21:22.245Z,100006.88
2023-03-13T00:23:49.625Z,99998.72
2023-03-13T00:26:18.934Z,100007.56
2023-03-13T00:28:46.363Z,99988.84
2023-03-13T00:31:21.737Z,99976.50
2023-03-13T00:33:52.076Z,99966.09
2023-03-13T00:36:20.081Z,99968.44
2023-03-13T00:38:46.868Z,99961.91
2023-03-13T00:41:16.410Z,99952.72
2023-03-13T00:43:44.384Z,99942.59
2023-03-13T00:46:12.769Z,99946.50
2023-03-13T00:48:39.473Z,100041.41
2023-03-13T00:51:07.420Z,100032.44
2023-03-13T00:53:34.321Z,100062.75
2023-03-13T00:56:06.171Z,100028.78
2023-03-13T00:58:35.553Z,100029.59
2023-03-13T01:01:14.647Z,100013.34
2023-03-13T01:03:42.922Z,100003.94
2023-03-13T01:06:13.123Z,99996.28
2023-03-13T01:08:40.003Z,99977.19
2023-03-13T01:11:13.058Z,99997.81
2023-03-13T01:13:40.076Z,99991.88
2023-03-13T01:16:15.049Z,99982.84
2023-03-13T01:18:44.194Z,99947.69
2023-03-13T01:21:11.318Z,99911.56
2023-03-13T01:23:38.220Z,99896.63
2023-03-13T01:26:06.493Z,99883.59
2023-03-13T01:28:33.557Z,99985.69
2023-03-13T01:31:01.305Z,99964.00
2023-03-13T01:33:27.813Z,99955.28
2023-03-13T01:36:01.804Z,99970.84
2023-03-13T01:38:28.338Z,99958.47
2023-03-13T01:40:54.920Z,99932.94
2023-03-13T01:43:27.603Z,99916.34
2023-03-13T01:45:54.581Z,99921.84
2023-03-13T01:48:26.234Z,99905.78
2023-03-13T01:50:55.184Z,99888.06
2023-03-13T01:53:22.638Z,99869.50
2023-03-13T01:55:49.734Z,99879.75
2023-03-13T01:58:16.254Z,99845.97
2023-03-13T02:00:44.060Z,99838.84
2023-03-13T02:03:14.644Z,99828.38
2023-03-13T02:05:42.644Z,99824.25
2023-03-13T02:08:19.015Z,99821.25
2023-03-13T02:10:51.821Z,68116.28
2023-03-13T02:13:20.599Z,68116.28
2023-03-13T02:15:48.181Z,68116.28
2023-03-13T02:18:16.974Z,68116.28
2023-03-13T02:20:43.478Z,68116.28
2023-03-13T02:23:22.163Z,68116.28
2023-03-13T02:25:51.184Z,100282.69
2023-03-13T02:28:23.630Z,100376.94
2023-03-13T02:30:52.044Z,100069.16
2023-03-13T02:33:23.031Z,100038.50
2023-03-13T02:35:49.955Z,100010.22
2023-03-13T02:38:22.216Z,68116.28
2023-03-13T02:40:51.035Z,68116.28
2023-03-13T02:43:24.275Z,99999.59
2023-03-13T02:46:14.969Z,99996.97
2023-03-13T02:48:42.972Z,68116.28
2023-03-13T02:51:34.255Z,68116.28
2023-03-13T02:54:24.722Z,68116.28
2023-03-13T02:57:15.042Z,68116.28
2023-03-13T03:00:02.338Z,68116.28
2023-03-13T03:02:49.423Z,68116.28
2023-03-13T03:05:36.449Z,68116.28
2023-03-13T03:08:23.520Z,68116.28
2023-03-13T03:11:10.543Z,68116.28
2023-03-13T03:13:57.727Z,68116.28
2023-03-13T03:16:44.821Z,68116.28
2023-03-13T03:19:31.898Z,68116.28
2023-03-13T03:22:19.010Z,68116.28
2023-03-13T03:25:06.936Z,68116.28
2023-03-13T03:27:53.929Z,68116.28
2023-03-13T03:30:41.053Z,68116.28
2023-03-13T03:33:28.058Z,68116.28
2023-03-13T03:36:00.366Z,100023.66
2023-03-13T03:38:26.884Z,99988.09
2023-03-13T03:40:53.434Z,99965.50
2023-03-13T03:43:19.903Z,99946.66
2023-03-13T03:45:46.433Z,99926.84
2023-03-13T03:48:12.942Z,99907.94
2023-03-13T03:50:39.388Z,68116.28
2023-03-13T03:53:05.930Z,68116.28
2023-03-13T03:55:34.769Z,68116.28
2023-03-13T03:58:01.638Z,99867.75
2023-03-13T04:00:28.352Z,99844.34
2023-03-13T04:02:56.183Z,68116.28
2023-03-13T04:05:23.446Z,68116.28
2023-03-13T04:07:58.929Z,68116.28
2023-03-13T04:10:25.424Z,68116.28
2023-03-13T04:12:51.894Z,68116.28
2023-03-13T04:15:18.528Z,68116.28
2023-03-13T04:17:45.047Z,68116.28
2023-03-13T04:20:13.752Z,68116.28
2023-03-13T04:22:42.181Z,68116.28
2023-03-13T04:25:09.383Z,68116.28
2023-03-13T04:27:36.246Z,68116.28
2023-03-13T04:30:02.758Z,68116.28
2023-03-13T04:32:29.382Z,68116.28
2023-03-13T04:35:01.492Z,68116.28
2023-03-13T04:37:28.071Z,68116.28
2023-03-13T04:39:54.657Z,68116.28
2023-03-13T04:42:21.163Z,68116.28
2023-03-13T04:44:47.636Z,68116.28
2023-03-13T04:47:14.130Z,68116.28
2023-03-13T04:49:40.825Z,68116.28
2023-03-13T04:52:07.567Z,68116.28
2023-03-13T04:54:34.042Z,68116.28
2023-03-13T04:57:00.547Z,68116.28
2023-03-13T04:59:27.197Z,68116.28
2023-03-13T05:01:53.702Z,68116.28
2023-03-13T05:04:20.281Z,68116.28
2023-03-13T05:06:46.724Z,68116.28
2023-03-13T05:09:13.144Z,99517.41
2023-03-13T05:11:40.360Z,99528.31
2023-03-13T05:14:09.019Z,99560.88
2023-03-13T05:16:35.558Z,68116.28
2023-03-13T05:19:10.813Z,99531.78
2023-03-13T05:21:37.224Z,68116.28
2023-03-13T05:24:03.830Z,68116.28
2023-03-13T05:26:30.275Z,68116.28
2023-03-13T05:28:56.767Z,68116.28
2023-03-13T05:31:23.402Z,68116.28
2023-03-13T05:33:49.924Z,68116.28
2023-03-13T05:36:16.385Z,68116.28
2023-03-13T05:38:42.950Z,68116.28
2023-03-13T05:41:09.508Z,68116.28
2023-03-13T05:43:36.008Z,68116.28
2023-03-13T05:46:02.566Z,99514.94
2023-03-13T05:48:29.114Z,68116.28
2023-03-13T05:50:55.597Z,68116.28
2023-03-13T05:53:22.134Z,99513.81
2023-03-13T05:55:48.660Z,99496.03
2023-03-13T05:58:15.138Z,68116.28
2023-03-13T06:00:43.615Z,68116.28
2023-03-13T06:03:11.950Z,68116.28
2023-03-13T06:05:39.709Z,68116.28
2023-03-13T06:08:07.324Z,68116.28
2023-03-13T06:10:33.845Z,99481.06
2023-03-13T06:13:13.655Z,68116.28
2023-03-13T06:15:54.248Z,99472.50
2023-03-13T06:18:21.175Z,68116.28
2023-03-13T06:20:49.288Z,68116.28
2023-03-13T06:23:16.567Z,68116.28
2023-03-13T06:25:47.449Z,99470.09
2023-03-13T06:28:17.534Z,99480.66
2023-03-13T06:30:44.169Z,99480.09
2023-03-13T06:33:11.265Z,99476.47
2023-03-13T06:35:55.332Z,99492.53
2023-03-13T06:38:25.718Z,99464.81
2023-03-13T06:40:52.485Z,99474.50
2023-03-13T06:43:19.711Z,68116.28
2023-03-13T06:45:46.490Z,68116.28
2023-03-13T06:48:13.312Z,68116.28
2023-03-13T06:50:40.456Z,68116.28
2023-03-13T06:53:07.182Z,99501.50
2023-03-13T06:55:33.658Z,99481.97
2023-03-13T06:58:00.182Z,99497.22
2023-03-13T07:00:26.802Z,99490.50
2023-03-13T07:02:53.948Z,99496.56
2023-03-13T07:05:20.514Z,99501.81
2023-03-13T07:07:46.977Z,99489.28
2023-03-13T07:10:13.528Z,99479.13
2023-03-13T07:12:40.018Z,99476.81
2023-03-13T07:15:10.296Z,99489.34
2023-03-13T07:17:37.120Z,99473.25
2023-03-13T07:20:11.313Z,99486.66
2023-03-13T07:22:38.176Z,99472.91
2023-03-13T07:25:05.683Z,99456.06
2023-03-13T07:27:32.584Z,99473.91
2023-03-13T07:29:59.008Z,99450.25
2023-03-13T07:32:25.541Z,99441.59
2023-03-13T07:34:52.037Z,99438.88
2023-03-13T07:37:18.549Z,99450.34
2023-03-13T07:39:45.082Z,99454.78
2023-03-13T07:42:12.203Z,99437.97
2023-03-13T07:44:38.789Z,99437.63
2023-03-13T07:47:05.558Z,99445.28
2023-03-13T07:49:32.052Z,99432.56
2023-03-13T07:51:58.514Z,99434.78
2023-03-13T07:54:25.007Z,99431.19
2023-03-13T07:56:51.661Z,99439.41
2023-03-13T07:59:18.167Z,99436.50
2023-03-13T08:01:44.689Z,99432.63
2023-03-13T08:04:14.067Z,99436.66
2023-03-13T08:06:41.953Z,99423.34
2023-03-13T08:09:09.858Z,99421.19
2023-03-13T08:11:40.417Z,99435.44
2023-03-13T08:14:07.263Z,99434.47
2023-03-13T08:16:34.980Z,99427.53
2023-03-13T08:19:04.511Z,99417.88
2023-03-13T08:21:33.207Z,99441.44
2023-03-13T08:24:05.803Z,99414.66
2023-03-13T08:26:34.302Z,99416.34
2023-03-13T08:29:03.805Z,99421.47
2023-03-13T08:31:35.386Z,99420.53
2023-03-13T08:34:02.082Z,99426.44
2023-03-13T08:36:32.075Z,99431.84
2023-03-13T08:39:01.021Z,99442.25
2023-03-13T08:41:30.030Z,99441.63
2023-03-13T08:43:57.317Z,99435.91
2023-03-13T08:46:24.598Z,99433.44
2023-03-13T08:48:55.315Z,99427.66
2023-03-13T08:51:24.306Z,99432.94
2023-03-13T08:53:51.794Z,99439.91
2023-03-13T08:56:21.643Z,99424.09
2023-03-13T08:58:53.462Z,99442.09
2023-03-13T09:01:24.919Z,99449.38
2023-03-13T09:03:52.567Z,99448.13
2023-03-13T09:06:19.294Z,99452.13
2023-03-13T09:08:45.812Z,99434.97
2023-03-13T09:11:14.817Z,99437.19
2023-03-13T09:13:44.214Z,99445.88
2023-03-13T09:16:15.807Z,99425.41
2023-03-13T09:18:43.404Z,99421.31
2023-03-13T09:21:24.091Z,99396.41
2023-03-13T09:23:51.296Z,99402.00
2023-03-13T09:26:22.792Z,99405.50
2023-03-13T09:28:50.206Z,99409.50
2023-03-13T09:31:19.878Z,99404.31
2023-03-13T09:33:47.926Z,99382.66
2023-03-13T09:36:14.915Z,99405.69
2023-03-13T09:38:41.806Z,99389.63
2023-03-13T09:41:17.401Z,99404.00
2023-03-13T09:44:05.431Z,99396.75
2023-03-13T09:46:35.382Z,99412.88
2023-03-13T09:49:14.040Z,99382.84
2023-03-13T09:51:44.358Z,99390.06
2023-03-13T09:54:33.186Z,99401.16
2023-03-13T09:57:11.646Z,99370.81
2023-03-13T09:59:43.644Z,99377.84
2023-03-13T10:02:25.184Z,99400.16
2023-03-13T10:05:05.289Z,99385.16
2023-03-13T10:07:31.975Z,99389.94
2023-03-13T10:10:00.948Z,99376.38
2023-03-13T10:12:41.496Z,99378.31
2023-03-13T10:15:35.539Z,99372.03
2023-03-13T10:18:13.338Z,99371.78
2023-03-13T10:20:40.801Z,99371.84
2023-03-13T10:23:16.304Z,99357.47
2023-03-13T10:25:43.064Z,99363.22
2023-03-13T10:28:13.498Z,99366.41
2023-03-13T10:30:46.452Z,99352.53
2023-03-13T10:33:12.945Z,99342.06
2023-03-13T10:35:42.728Z,99339.41
2023-03-13T10:38:11.152Z,99346.16
2023-03-13T10:40:38.190Z,99326.84
2023-03-13T10:43:04.646Z,99338.72
2023-03-13T10:45:35.574Z,99339.22
2023-03-13T10:48:13.609Z,99331.38
2023-03-13T10:50:44.681Z,99335.59
2023-03-13T10:53:23.276Z,99317.81
2023-03-13T10:55:52.797Z,99341.28
2023-03-13T10:58:35.451Z,99320.94
2023-03-13T11:01:22.109Z,99322.88
2023-03-13T11:03:50.203Z,99324.03
2023-03-13T11:06:22.515Z,99308.72
2023-03-13T11:08:49.002Z,99290.22
2023-03-13T11:11:20.429Z,99298.41
2023-03-13T11:13:47.000Z,99284.44
2023-03-13T11:16:26.476Z,99270.00
2023-03-13T11:19:09.975Z,99290.25
2023-03-13T11:21:50.807Z,99276.34
2023-03-13T11:24:32.375Z,99276.47
2023-03-13T11:27:26.445Z,99293.38
2023-03-13T11:29:56.072Z,99301.06
2023-03-13T11:32:34.466Z,99281.19
2023-03-13T11:35:07.714Z,99262.47
2023-03-13T11:37:37.373Z,99282.44
2023-03-13T11:40:27.754Z,99265.50
2023-03-13T11:43:21.784Z,99273.88
2023-03-13T11:46:08.583Z,99289.13
2023-03-13T11:49:07.137Z,99262.69
2023-03-13T11:51:58.349Z,99254.25
2023-03-13T11:54:42.511Z,99242.25
2023-03-13T11:57:17.043Z,99240.44
2023-03-13T11:59:58.579Z,99233.22
2023-03-13T12:02:34.508Z,99243.78
2023-03-13T12:05:09.192Z,99224.75
2023-03-13T12:07:41.529Z,99248.47
2023-03-13T12:10:13.849Z,99230.22
2023-03-13T12:12:44.497Z,99208.22
2023-03-13T12:15:14.311Z,99247.13
2023-03-13T12:17:48.170Z,99215.22
2023-03-13T12:20:57.092Z,99212.75
2023-03-13T12:23:38.741Z,99186.56
2023-03-13T12:26:12.306Z,99218.41
2023-03-13T12:28:47.535Z,99192.13
2023-03-13T12:31:29.226Z,99189.72
2023-03-13T12:34:14.356Z,99187.69
2023-03-13T12:36:43.548Z,99193.00
2023-03-13T12:39:49.985Z,99189.56
2023-03-13T12:42:16.312Z,99191.34
2023-03-13T12:44:43.257Z,99165.94
2023-03-13T12:47:47.005Z,99157.59
2023-03-13T12:50:42.299Z,99160.53
2023-03-13T12:53:31.727Z,99173.03
2023-03-13T12:56:35.908Z,99161.28
2023-03-13T12:59:11.101Z,99150.13
2023-03-13T13:01:42.149Z,99150.19
2023-03-13T13:04:16.315Z,99155.88
2023-03-13T13:07:35.143Z,99142.38
2023-03-13T13:10:05.105Z,99129.53
2023-03-13T13:12:31.723Z,99136.41
2023-03-13T13:15:04.153Z,99137.41
2023-03-13T13:17:47.661Z,99130.56
2023-03-13T13:20:40.379Z,99127.63
2023-03-13T13:23:21.727Z,99110.16
2023-03-13T13:25:49.793Z,99111.72
2023-03-13T13:28:21.788Z,99112.72
2023-03-13T13:30:55.701Z,99109.56
2023-03-13T13:33:28.217Z,99104.16
2023-03-13T13:36:10.056Z,99114.53
2023-03-13T13:38:43.517Z,99123.72
2023-03-13T13:41:10.043Z,99107.16
2023-03-13T13:43:45.472Z,99117.78
2023-03-13T13:46:33.187Z,99109.38
2023-03-13T13:49:05.773Z,99104.25
2023-03-13T13:51:39.548Z,99104.50
2023-03-13T13:54:18.204Z,99099.13
2023-03-13T13:56:49.922Z,99101.56
2023-03-13T13:59:22.817Z,99093.09
2023-03-13T14:02:10.404Z,99096.53
2023-03-13T14:04:52.352Z,99083.91
2023-03-13T14:07:28.091Z,99070.66
2023-03-13T14:09:54.540Z,99086.94
2023-03-13T14:12:28.272Z,99080.03
2023-03-13T14:15:34.606Z,99077.91
2023-03-13T14:18:09.215Z,99074.00
2023-03-13T14:20:38.780Z,99069.75
2023-03-13T14:23:08.189Z,99075.47
2023-03-13T14:25:48.983Z,99075.84
2023-03-13T14:28:27.190Z,99065.47
2023-03-13T14:30:57.021Z,99038.78
2023-03-13T14:33:26.833Z,99042.56
2023-03-13T14:35:54.071Z,99027.50
2023-03-13T14:38:26.837Z,99021.25
2023-03-13T14:40:55.548Z,99034.06
2023-03-13T14:43:38.217Z,99036.78
2023-03-13T14:46:35.894Z,99030.19
2023-03-13T14:49:25.654Z,99030.59
2023-03-13T14:52:01.907Z,99013.75
2023-03-13T14:54:51.400Z,99018.19
2023-03-13T14:57:27.358Z,99017.00
2023-03-13T14:59:55.766Z,99007.56
2023-03-13T15:02:31.970Z,99020.31
2023-03-13T15:05:04.886Z,99005.47
2023-03-13T15:07:47.388Z,98994.19
2023-03-13T15:10:36.851Z,98982.84
2023-03-13T15:13:33.086Z,98983.97
2023-03-13T15:16:00.546Z,98985.16
2023-03-13T15:18:30.314Z,98975.31
2023-03-13T15:20:59.942Z,98965.97
2023-03-13T15:23:26.496Z,98958.91
2023-03-13T15:25:53.027Z,98947.00
2023-03-13T15:28:23.683Z,98962.06
2023-03-13T15:30:51.834Z,98958.78
2023-03-13T15:33:21.683Z,98948.44
2023-03-13T15:35:49.293Z,98953.94
2023-03-13T15:38:24.340Z,98946.34
2023-03-13T15:40:51.274Z,98938.50
2023-03-13T15:43:19.818Z,98939.47
2023-03-13T15:45:53.323Z,98937.94
2023-03-13T15:48:21.057Z,98928.59
2023-03-13T15:50:52.569Z,98929.81
2023-03-13T15:53:25.102Z,98920.47
2023-03-13T15:55:53.381Z,98927.72
2023-03-13T15:58:20.003Z,98914.16
2023-03-13T16:00:48.322Z,98900.41
2023-03-13T16:03:27.039Z,98897.66
2023-03-13T16:05:55.260Z,98888.38
2023-03-13T16:08:34.932Z,98886.44
2023-03-13T16:11:02.277Z,98886.00
2023-03-13T16:13:28.786Z,98886.47
2023-03-13T16:15:55.315Z,98879.03
2023-03-13T16:18:24.733Z,98870.47
2023-03-13T16:20:52.168Z,98873.16
2023-03-13T16:23:18.781Z,98870.78
2023-03-13T16:25:49.127Z,98867.25
2023-03-13T16:28:16.217Z,98877.13
2023-03-13T16:30:43.780Z,98856.59
2023-03-13T16:33:11.483Z,98856.28
2023-03-13T16:35:38.279Z,98855.91
2023-03-13T16:38:05.114Z,98863.22
2023-03-13T16:40:33.261Z,98851.28
2023-03-13T16:43:00.542Z,98855.94
2023-03-13T16:45:27.605Z,98852.75
2023-03-13T16:47:54.235Z,98862.06
2023-03-13T16:50:26.964Z,98856.59
2023-03-13T16:52:54.218Z,98860.13
2023-03-13T16:55:24.597Z,98855.84
2023-03-13T16:57:52.294Z,98852.25
2023-03-13T17:00:21.409Z,98844.25
2023-03-13T17:02:48.528Z,98839.69
2023-03-13T17:05:16.128Z,98832.63
2023-03-13T17:07:47.921Z,98844.78
2023-03-13T17:10:32.467Z,98841.56
2023-03-13T17:13:00.351Z,98837.81
2023-03-13T17:15:28.877Z,98842.91
2023-03-13T17:17:56.694Z,98843.94
2023-03-13T17:20:26.389Z,98858.78
2023-03-13T17:22:54.965Z,98845.06
2023-03-13T17:25:21.882Z,98860.25
2023-03-13T17:27:48.596Z,98856.22
2023-03-13T17:30:25.005Z,98855.00
2023-03-13T17:32:51.832Z,98847.53
2023-03-13T17:35:19.897Z,98870.38
2023-03-13T17:37:47.854Z,98849.22
2023-03-13T17:40:21.781Z,98851.09
2023-03-13T17:42:48.851Z,98853.66
2023-03-13T17:45:16.230Z,98863.88
2023-03-13T17:47:42.911Z,98846.06
2023-03-13T17:50:16.942Z,98847.41
2023-03-13T17:52:43.461Z,98840.94
2023-03-13T17:55:11.219Z,98832.22
2023-03-13T17:57:38.640Z,98841.50
2023-03-13T18:00:17.022Z,98835.44
2023-03-13T18:02:43.781Z,98828.56
2023-03-13T18:05:10.288Z,98827.09
2023-03-13T18:07:43.246Z,98814.63
2023-03-13T18:10:15.822Z,98817.06
2023-03-13T18:12:42.351Z,98816.09
2023-03-13T18:15:09.184Z,98808.50
2023-03-13T18:17:35.709Z,98813.97
2023-03-13T18:20:02.210Z,98811.16
2023-03-13T18:22:28.801Z,98792.91
2023-03-13T18:24:55.244Z,98791.59
2023-03-13T18:27:22.394Z,98800.38
2023-03-13T18:29:49.527Z,98802.06
2023-03-13T18:32:18.518Z,98809.78
2023-03-13T18:34:45.133Z,98811.44
2023-03-13T18:37:40.642Z,98822.69
2023-03-13T18:40:25.659Z,98802.00
2023-03-13T18:42:52.275Z,98794.94
2023-03-13T18:45:21.359Z,98809.19
2023-03-13T18:47:48.500Z,98806.00
2023-03-13T18:50:30.328Z,98796.94
2023-03-13T18:52:58.414Z,98810.06
2023-03-13T18:55:27.461Z,98808.81
2023-03-13T18:57:55.278Z,98814.97
2023-03-13T19:00:25.980Z,98801.56
2023-03-13T19:02:52.804Z,98811.69
2023-03-13T19:05:20.031Z,98797.81
2023-03-13T19:07:47.076Z,98802.25
2023-03-13T19:10:32.853Z,98810.94
2023-03-13T19:12:59.402Z,98807.28
2023-03-13T19:15:28.845Z,98802.25
2023-03-13T19:17:56.178Z,98796.50
2023-03-13T19:20:24.244Z,98797.63
2023-03-13T19:22:50.779Z,98806.09
2023-03-13T19:25:17.575Z,98805.91
2023-03-13T19:27:44.697Z,98801.56
2023-03-13T19:30:23.138Z,98794.84
2023-03-13T19:32:50.101Z,98787.31
2023-03-13T19:35:18.905Z,98788.66
2023-03-13T19:37:46.071Z,98794.56
2023-03-13T19:40:22.825Z,98792.72
2023-03-13T19:42:49.824Z,98774.44
2023-03-13T19:45:21.892Z,98776.56
2023-03-13T19:47:51.441Z,98766.84
2023-03-13T19:50:23.714Z,98759.06
2023-03-13T19:52:50.271Z,98749.72
2023-03-13T19:55:16.860Z,98746.34
2023-03-13T19:57:46.122Z,98740.59
2023-03-13T20:00:21.362Z,98730.09
2023-03-13T20:02:48.108Z,98731.25
2023-03-13T20:05:14.716Z,98728.75
2023-03-13T20:07:41.248Z,98722.31
2023-03-13T20:10:08.154Z,98712.28
2023-03-13T20:12:35.268Z,98709.22
2023-03-13T20:15:01.811Z,98711.53
2023-03-13T20:17:28.314Z,98699.44
2023-03-13T20:19:54.844Z,98702.41
2023-03-13T20:22:21.407Z,98714.25
2023-03-13T20:24:47.938Z,98712.88
2023-03-13T20:27:14.483Z,98724.41
2023-03-13T20:29:41.449Z,98736.63
2023-03-13T20:32:08.370Z,98738.09
2023-03-13T20:34:34.947Z,98749.16
2023-03-13T20:37:02.486Z,98754.63
2023-03-13T20:39:29.165Z,98748.66
2023-03-13T20:41:56.330Z,98751.72
2023-03-13T20:44:23.624Z,98747.41
2023-03-13T20:46:50.261Z,98755.31
2023-03-13T20:49:16.774Z,98749.53
2023-03-13T20:51:43.285Z,98745.97
2023-03-13T20:54:09.861Z,98753.81
2023-03-13T20:56:36.848Z,98740.09
2023-03-13T20:59:03.943Z,98737.28
2023-03-13T21:01:32.277Z,98741.72
2023-03-13T21:03:59.133Z,98729.97
2023-03-13T21:06:25.626Z,98730.28
2023-03-13T21:08:52.161Z,98732.38
2023-03-13T21:11:21.403Z,98744.75
2023-03-13T21:13:48.431Z,98759.94
2023-03-13T21:16:16.415Z,98772.56
2023-03-13T21:18:42.941Z,98763.53
2023-03-13T21:21:17.223Z,98744.09
2023-03-13T21:23:44.598Z,98733.22
2023-03-13T21:26:12.190Z,98726.13
2023-03-13T21:28:39.993Z,98725.25
2023-03-13T21:31:12.492Z,98713.63
2023-03-13T21:33:40.021Z,98722.06
2023-03-13T21:36:07.394Z,98713.63
2023-03-13T21:38:34.419Z,98715.94
2023-03-13T21:41:00.966Z,98707.53
2023-03-13T21:43:30.215Z,98710.44
2023-03-13T21:45:59.289Z,98704.47
2023-03-13T21:48:26.304Z,98695.06
2023-03-13T21:50:54.096Z,98674.19
2023-03-13T21:53:20.715Z,98675.66
2023-03-13T21:55:51.840Z,98678.97
2023-03-13T21:58:18.763Z,98666.66
2023-03-13T22:00:45.736Z,98688.22
2023-03-13T22:03:12.505Z,98667.72
2023-03-13T22:05:43.846Z,98665.63
2023-03-13T22:08:10.969Z,98657.47
2023-03-13T22:10:38.283Z,98662.41
2023-03-13T22:13:06.684Z,98668.94
2023-03-13T22:15:33.257Z,98675.50
2023-03-13T22:17:59.897Z,98696.47
2023-03-13T22:20:26.444Z,98702.34
2023-03-13T22:22:53.066Z,98700.47
2023-03-13T22:25:19.568Z,98719.91
2023-03-13T22:27:46.121Z,98727.06
2023-03-13T22:30:13.062Z,98720.75
2023-03-13T22:32:39.632Z,98730.47
2023-03-13T22:35:06.874Z,98725.22
2023-03-13T22:37:33.418Z,98730.91
2023-03-13T22:40:00.126Z,98747.66
2023-03-13T22:42:26.928Z,98757.13
2023-03-13T22:44:55.509Z,98756.75
2023-03-13T22:47:22.346Z,98755.50
2023-03-13T22:49:48.875Z,98744.78
2023-03-13T22:52:15.341Z,98748.50
2023-03-13T22:54:41.799Z,98747.44
2023-03-13T22:57:08.284Z,98734.38
2023-03-13T22:59:35.466Z,98727.88
2023-03-13T23:02:01.990Z,98713.84
2023-03-13T23:04:28.483Z,98719.13
2023-03-13T23:06:54.948Z,98715.44
2023-03-13T23:09:21.445Z,98702.00
2023-03-13T23:11:47.934Z,98690.47
2023-03-13T23:14:14.399Z,98703.16
2023-03-13T23:16:40.985Z,98689.50
2023-03-13T23:19:07.763Z,98697.28
2023-03-13T23:21:34.277Z,98677.25
2023-03-13T23:24:00.749Z,98674.59
2023-03-13T23:26:27.286Z,98657.81
2023-03-13T23:28:53.735Z,98670.47
2023-03-13T23:31:21.805Z,98671.63
2023-03-13T23:33:49.262Z,98679.66
2023-03-13T23:36:18.723Z,98698.88
2023-03-13T23:38:49.625Z,98711.84
2023-03-13T23:41:16.068Z,98748.06
2023-03-13T23:43:42.933Z,98727.78
2023-03-13T23:46:20.988Z,98694.56
2023-03-13T23:48:47.550Z,98670.00
2023-03-13T23:51:14.248Z,98681.28
2023-03-13T23:53:42.990Z,98661.81
2023-03-13T23:56:10.780Z,98670.00
2023-03-13T23:58:37.611Z,98671.84
